sensor_id;sensor_type;location;lat;lon;timestamp;pressure;altitude;pressure_sealevel;temperature;humidity
55373;BME280;41249;47.838;16.490;2022-09-09T00:00:41;98998.59;;;18.65;80.55
55373;BME280;41249;47.838;16.490;2022-09-09T00:03:19;99010.75;;;18.79;78.82
55373;BME280;41249;47.838;16.490;2022-09-09T00:06:17;99004.09;;;18.70;80.36
55373;BME280;41249;47.838;16.490;2022-09-09T00:12:47;99004.03;;;18.23;85.37
55373;BME280;41249;47.838;16.490;2022-09-09T00:14:55;98999.25;;;18.25;84.42
55373;BME280;41249;47.838;16.490;2022-09-09T00:20:24;98996.47;;;18.55;78.43
55373;BME280;41249;47.838;16.490;2022-09-09T00:23:12;98993.91;;;18.60;76.25
55373;BME280;41249;47.838;16.490;2022-09-09T00:28:23;98994.59;;;18.79;73.72
55373;BME280;41249;47.838;16.490;2022-09-09T00:30:51;98994.59;;;18.79;72.56
55373;BME280;41249;47.838;16.490;2022-09-09T00:33:20;99002.19;;;18.59;69.69
55373;BME280;41249;47.838;16.490;2022-09-09T00:35:55;99006.28;;;18.38;69.08
55373;BME280;41249;47.838;16.490;2022-09-09T00:38:38;99006.81;;;18.05;69.94
55373;BME280;41249;47.838;16.490;2022-09-09T00:41:16;99012.25;;;17.87;71.79
55373;BME280;41249;47.838;16.490;2022-09-09T00:57:38;99020.59;;;17.97;72.44
55373;BME280;41249;47.838;16.490;2022-09-09T01:00:24;99031.56;;;17.95;72.73
55373;BME280;41249;47.838;16.490;2022-09-09T01:03:18;99032.63;;;17.94;73.28
55373;BME280;41249;47.838;16.490;2022-09-09T01:09:15;99032.19;;;18.09;72.48
55373;BME280;41249;47.838;16.490;2022-09-09T01:11:51;99029.50;;;18.09;70.92
55373;BME280;41249;47.838;16.490;2022-09-09T01:17:09;99040.25;;;18.09;71.37
55373;BME280;41249;47.838;16.490;2022-09-09T01:27:21;99037.16;;;17.94;69.61
55373;BME280;41249;47.838;16.490;2022-09-09T01:29:49;99044.28;;;17.88;69.23
55373;BME280;41249;47.838;16.490;2022-09-09T01:32:49;99046.53;;;17.73;69.89
55373;BME280;41249;47.838;16.490;2022-09-09T01:38:13;99043.00;;;17.61;72.01
55373;BME280;41249;47.838;16.490;2022-09-09T01:40:40;99047.34;;;17.73;72.03
55373;BME280;41249;47.838;16.490;2022-09-09T01:43:07;99046.19;;;17.69;70.63
55373;BME280;41249;47.838;16.490;2022-09-09T01:45:34;99048.28;;;17.30;71.27
55373;BME280;41249;47.838;16.490;2022-09-09T01:48:01;99041.59;;;17.21;73.29
55373;BME280;41249;47.838;16.490;2022-09-09T01:50:29;99039.72;;;17.22;73.37
55373;BME280;41249;47.838;16.490;2022-09-09T01:52:58;99040.16;;;17.37;73.06
55373;BME280;41249;47.838;16.490;2022-09-09T01:55:31;99038.75;;;17.35;73.08
55373;BME280;41249;47.838;16.490;2022-09-09T02:01:21;99036.53;;;17.13;73.42
55373;BME280;41249;47.838;16.490;2022-09-09T02:03:57;99043.63;;;17.01;75.05
55373;BME280;41249;47.838;16.490;2022-09-09T02:06:35;99036.34;;;16.90;75.88
55373;BME280;41249;47.838;16.490;2022-09-09T02:09:07;99040.81;;;16.96;75.03
55373;BME280;41249;47.838;16.490;2022-09-09T02:11:37;99034.88;;;17.12;74.91
55373;BME280;41249;47.838;16.490;2022-09-09T02:14:08;99043.41;;;17.09;74.99
55373;BME280;41249;47.838;16.490;2022-09-09T02:16:48;99036.56;;;17.07;75.74
55373;BME280;41249;47.838;16.490;2022-09-09T02:19:24;99033.84;;;17.13;74.78
55373;BME280;41249;47.838;16.490;2022-09-09T02:21:55;99035.69;;;17.13;75.32
55373;BME280;41249;47.838;16.490;2022-09-09T02:24:22;99036.38;;;17.08;75.66
55373;BME280;41249;47.838;16.490;2022-09-09T02:26:51;99032.09;;;17.00;75.48
55373;BME280;41249;47.838;16.490;2022-09-09T02:29:31;99033.72;;;17.01;75.59
55373;BME280;41249;47.838;16.490;2022-09-09T02:32:02;99032.00;;;17.07;74.70
55373;BME280;41249;47.838;16.490;2022-09-09T02:34:34;99030.84;;;17.03;73.92
55373;BME280;41249;47.838;16.490;2022-09-09T02:37:03;99026.41;;;16.90;74.65
55373;BME280;41249;47.838;16.490;2022-09-09T02:39:31;99025.38;;;16.73;75.34
55373;BME280;41249;47.838;16.490;2022-09-09T02:41:58;99026.66;;;16.64;75.96
55373;BME280;41249;47.838;16.490;2022-09-09T02:44:25;99029.97;;;16.66;76.61
55373;BME280;41249;47.838;16.490;2022-09-09T02:58:09;99023.75;;;16.65;76.96
55373;BME280;41249;47.838;16.490;2022-09-09T03:00:39;99020.25;;;16.65;76.17
55373;BME280;41249;47.838;16.490;2022-09-09T03:03:07;99023.84;;;16.59;76.46
55373;BME280;41249;47.838;16.490;2022-09-09T03:05:35;99027.88;;;16.68;76.34
55373;BME280;41249;47.838;16.490;2022-09-09T03:08:03;99021.41;;;16.75;75.28
55373;BME280;41249;47.838;16.490;2022-09-09T03:10:30;99028.63;;;16.75;75.18
55373;BME280;41249;47.838;16.490;2022-09-09T03:12:56;99027.19;;;16.54;75.33
55373;BME280;41249;47.838;16.490;2022-09-09T03:15:23;99035.50;;;16.46;76.13
55373;BME280;41249;47.838;16.490;2022-09-09T03:17:49;99034.13;;;16.62;76.40
55373;BME280;41249;47.838;16.490;2022-09-09T03:20:17;99039.69;;;16.85;75.71
55373;BME280;41249;47.838;16.490;2022-09-09T03:22:43;99037.25;;;17.02;74.16
55373;BME280;41249;47.838;16.490;2022-09-09T03:25:11;99034.88;;;17.12;74.44
55373;BME280;41249;47.838;16.490;2022-09-09T03:27:37;99039.38;;;17.18;73.45
55373;BME280;41249;47.838;16.490;2022-09-09T03:30:04;99034.13;;;17.23;73.89
55373;BME280;41249;47.838;16.490;2022-09-09T03:32:31;99035.78;;;17.24;74.90
55373;BME280;41249;47.838;16.490;2022-09-09T03:34:58;99029.13;;;17.45;73.84
55373;BME280;41249;47.838;16.490;2022-09-09T03:37:24;99030.38;;;17.61;72.83
55373;BME280;41249;47.838;16.490;2022-09-09T03:39:51;99024.81;;;17.74;72.22
55373;BME280;41249;47.838;16.490;2022-09-09T03:42:21;99021.56;;;17.84;71.95
55373;BME280;41249;47.838;16.490;2022-09-09T03:44:48;99023.00;;;17.87;71.49
55373;BME280;41249;47.838;16.490;2022-09-09T03:47:17;99026.13;;;17.83;71.72
55373;BME280;41249;47.838;16.490;2022-09-09T03:49:45;99036.44;;;17.87;71.84
55373;BME280;41249;47.838;16.490;2022-09-09T03:52:12;99042.56;;;17.94;71.33
55373;BME280;41249;47.838;16.490;2022-09-09T03:54:38;99054.50;;;17.98;71.35
55373;BME280;41249;47.838;16.490;2022-09-09T03:57:05;99060.78;;;17.92;71.52
55373;BME280;41249;47.838;16.490;2022-09-09T03:59:32;99062.41;;;17.93;72.33
55373;BME280;41249;47.838;16.490;2022-09-09T04:01:59;99064.19;;;17.99;72.25
55373;BME280;41249;47.838;16.490;2022-09-09T04:04:26;99059.50;;;17.94;71.58
55373;BME280;41249;47.838;16.490;2022-09-09T04:06:53;99062.81;;;17.96;72.21
55373;BME280;41249;47.838;16.490;2022-09-09T04:09:20;99068.63;;;17.93;72.79
55373;BME280;41249;47.838;16.490;2022-09-09T04:11:46;99070.50;;;17.93;73.30
55373;BME280;41249;47.838;16.490;2022-09-09T04:14:13;99066.88;;;17.99;73.18
55373;BME280;41249;47.838;16.490;2022-09-09T04:16:39;99053.13;;;18.07;72.06
55373;BME280;41249;47.838;16.490;2022-09-09T04:19:09;99060.59;;;18.05;73.01
55373;BME280;41249;47.838;16.490;2022-09-09T04:21:39;99060.22;;;18.01;72.18
55373;BME280;41249;47.838;16.490;2022-09-09T04:24:09;99061.50;;;17.99;72.21
55373;BME280;41249;47.838;16.490;2022-09-09T04:26:36;99063.88;;;18.07;72.31
55373;BME280;41249;47.838;16.490;2022-09-09T04:29:04;99058.50;;;18.07;71.55
55373;BME280;41249;47.838;16.490;2022-09-09T04:31:31;99059.78;;;18.16;72.29
55373;BME280;41249;47.838;16.490;2022-09-09T04:33:57;99067.63;;;18.06;71.76
55373;BME280;41249;47.838;16.490;2022-09-09T04:36:24;99062.91;;;18.01;73.01
55373;BME280;41249;47.838;16.490;2022-09-09T04:38:50;99068.66;;;18.05;73.28
55373;BME280;41249;47.838;16.490;2022-09-09T04:41:17;99060.03;;;18.15;72.65
55373;BME280;41249;47.838;16.490;2022-09-09T04:43:44;99058.66;;;18.24;72.68
55373;BME280;41249;47.838;16.490;2022-09-09T04:46:10;99060.91;;;18.38;72.11
55373;BME280;41249;47.838;16.490;2022-09-09T04:48:37;99063.50;;;18.57;72.45
55373;BME280;41249;47.838;16.490;2022-09-09T04:51:05;99068.09;;;18.68;71.08
55373;BME280;41249;47.838;16.490;2022-09-09T04:53:33;99073.38;;;18.75;70.01
55373;BME280;41249;47.838;16.490;2022-09-09T04:58:32;99068.66;;;12.18;100.00
55373;BME280;41249;47.838;16.490;2022-09-09T05:01:15;99079.22;;;10.95;100.00
55373;BME280;41249;47.838;16.490;2022-09-09T05:03:44;99077.50;;;10.41;100.00
55373;BME280;41249;47.838;16.490;2022-09-09T05:06:14;99088.97;;;10.19;100.00
55373;BME280;41249;47.838;16.490;2022-09-09T05:08:43;99089.09;;;10.26;100.00
55373;BME280;41249;47.838;16.490;2022-09-09T05:11:24;99080.00;;;10.43;100.00
55373;BME280;41249;47.838;16.490;2022-09-09T05:13:52;99077.69;;;10.63;100.00
55373;BME280;41249;47.838;16.490;2022-09-09T05:16:20;99081.75;;;10.74;100.00
55373;BME280;41249;47.838;16.490;2022-09-09T05:18:47;99067.56;;;10.81;100.00
55373;BME280;41249;47.838;16.490;2022-09-09T05:21:15;99061.53;;;11.02;100.00
55373;BME280;41249;47.838;16.490;2022-09-09T05:23:42;99069.59;;;11.23;100.00
55373;BME280;41249;47.838;16.490;2022-09-09T05:26:14;99069.94;;;11.35;100.00
55373;BME280;41249;47.838;16.490;2022-09-09T05:28:43;99076.63;;;10.87;100.00
55373;BME280;41249;47.838;16.490;2022-09-09T05:31:11;99087.06;;;10.74;100.00
55373;BME280;41249;47.838;16.490;2022-09-09T05:33:40;99092.09;;;10.83;100.00
55373;BME280;41249;47.838;16.490;2022-09-09T05:36:11;99092.94;;;10.98;100.00
55373;BME280;41249;47.838;16.490;2022-09-09T05:38:40;99086.00;;;11.12;100.00
55373;BME280;41249;47.838;16.490;2022-09-09T05:41:07;99084.97;;;11.13;100.00
55373;BME280;41249;47.838;16.490;2022-09-09T05:43:34;99085.25;;;11.48;100.00
55373;BME280;41249;47.838;16.490;2022-09-09T05:46:03;99089.53;;;11.64;100.00
55373;BME280;41249;47.838;16.490;2022-09-09T05:48:38;99091.44;;;11.85;100.00
55373;BME280;41249;47.838;16.490;2022-09-09T05:51:08;99091.34;;;12.14;100.00
55373;BME280;41249;47.838;16.490;2022-09-09T05:53:36;99091.13;;;12.16;100.00
55373;BME280;41249;47.838;16.490;2022-09-09T05:56:11;99080.88;;;12.13;100.00
55373;BME280;41249;47.838;16.490;2022-09-09T05:58:38;99073.84;;;12.26;100.00
55373;BME280;41249;47.838;16.490;2022-09-09T06:01:14;99065.31;;;12.37;100.00
55373;BME280;41249;47.838;16.490;2022-09-09T06:03:42;99061.44;;;12.61;100.00
55373;BME280;41249;47.838;16.490;2022-09-09T06:06:11;99053.81;;;12.86;100.00
55373;BME280;41249;47.838;16.490;2022-09-09T06:08:40;99052.50;;;13.04;100.00
55373;BME280;41249;47.838;16.490;2022-09-09T06:11:10;99043.66;;;13.03;100.00
55373;BME280;41249;47.838;16.490;2022-09-09T06:13:38;99050.75;;;13.24;100.00
55373;BME280;41249;47.838;16.490;2022-09-09T06:16:08;99052.28;;;13.40;100.00
55373;BME280;41249;47.838;16.490;2022-09-09T06:18:35;99055.38;;;13.43;100.00
55373;BME280;41249;47.838;16.490;2022-09-09T06:21:04;99052.19;;;13.68;100.00
55373;BME280;41249;47.838;16.490;2022-09-09T06:23:33;99054.84;;;13.68;100.00
55373;BME280;41249;47.838;16.490;2022-09-09T06:26:11;99057.16;;;13.71;100.00
55373;BME280;41249;47.838;16.490;2022-09-09T06:28:38;99062.72;;;13.89;100.00
55373;BME280;41249;47.838;16.490;2022-09-09T06:31:07;99069.91;;;13.82;100.00
55373;BME280;41249;47.838;16.490;2022-09-09T06:33:36;99060.06;;;13.96;100.00
55373;BME280;41249;47.838;16.490;2022-09-09T06:36:05;99063.38;;;13.98;100.00
55373;BME280;41249;47.838;16.490;2022-09-09T06:38:32;99068.28;;;13.88;100.00
55373;BME280;41249;47.838;16.490;2022-09-09T06:40:59;99067.06;;;13.90;100.00
55373;BME280;41249;47.838;16.490;2022-09-09T06:43:26;99061.53;;;14.12;100.00
55373;BME280;41249;47.838;16.490;2022-09-09T06:46:14;99057.22;;;14.17;100.00
55373;BME280;41249;47.838;16.490;2022-09-09T06:48:43;99049.44;;;14.36;100.00
55373;BME280;41249;47.838;16.490;2022-09-09T06:51:19;99045.94;;;14.22;100.00
55373;BME280;41249;47.838;16.490;2022-09-09T06:53:50;99051.13;;;14.63;100.00
55373;BME280;41249;47.838;16.490;2022-09-09T06:56:32;99050.03;;;14.84;99.47
55373;BME280;41249;47.838;16.490;2022-09-09T06:59:00;99051.84;;;15.17;97.15
55373;BME280;41249;47.838;16.490;2022-09-09T07:01:32;99048.88;;;15.38;94.16
55373;BME280;41249;47.838;16.490;2022-09-09T07:03:59;99051.13;;;15.48;91.18
55373;BME280;41249;47.838;16.490;2022-09-09T07:06:35;99053.53;;;15.62;89.66
55373;BME280;41249;47.838;16.490;2022-09-09T07:09:07;99054.47;;;15.81;86.68
55373;BME280;41249;47.838;16.490;2022-09-09T07:11:39;99051.84;;;16.06;81.30
55373;BME280;41249;47.838;16.490;2022-09-09T07:14:05;99051.59;;;16.14;83.98
55373;BME280;41249;47.838;16.490;2022-09-09T07:16:33;99054.72;;;16.11;83.55
55373;BME280;41249;47.838;16.490;2022-09-09T07:19:03;99048.81;;;16.59;80.28
55373;BME280;41249;47.838;16.490;2022-09-09T07:21:31;99052.09;;;16.61;83.21
55373;BME280;41249;47.838;16.490;2022-09-09T07:23:58;99057.38;;;16.43;80.18
55373;BME280;41249;47.838;16.490;2022-09-09T07:26:27;99048.88;;;17.51;76.54
55373;BME280;41249;47.838;16.490;2022-09-09T07:28:55;99045.16;;;17.52;71.56
55373;BME280;41249;47.838;16.490;2022-09-09T07:31:29;99041.63;;;17.51;70.70
55373;BME280;41249;47.838;16.490;2022-09-09T07:34:00;99044.53;;;17.68;71.87
55373;BME280;41249;47.838;16.490;2022-09-09T07:39:05;99044.53;;;17.68;72.69
55373;BME280;41249;47.838;16.490;2022-09-09T07:41:41;99049.38;;;17.60;74.61
55373;BME280;41249;47.838;16.490;2022-09-09T07:44:13;99042.69;;;17.50;75.65
55373;BME280;41249;47.838;16.490;2022-09-09T07:46:40;99047.66;;;17.65;78.19
55373;BME280;41249;47.838;16.490;2022-09-09T07:49:09;99052.13;;;17.90;74.27
55373;BME280;41249;47.838;16.490;2022-09-09T07:51:38;99054.50;;;17.98;77.75
55373;BME280;41249;47.838;16.490;2022-09-09T07:54:10;99054.50;;;18.09;77.01
55373;BME280;41249;47.838;16.490;2022-09-09T07:56:39;99062.53;;;18.28;73.56
55373;BME280;41249;47.838;16.490;2022-09-09T07:59:06;99063.44;;;18.22;72.99
55373;BME280;41249;47.838;16.490;2022-09-09T08:01:41;99067.09;;;18.27;74.42
55373;BME280;41249;47.838;16.490;2022-09-09T08:04:13;99067.06;;;18.16;71.59
55373;BME280;41249;47.838;16.490;2022-09-09T08:06:58;99070.44;;;18.11;69.10
55373;BME280;41249;47.838;16.490;2022-09-09T08:09:26;99065.63;;;18.55;68.79
55373;BME280;41249;47.838;16.490;2022-09-09T08:11:55;99069.63;;;18.64;67.82
55373;BME280;41249;47.838;16.490;2022-09-09T08:14:26;99070.09;;;18.61;63.27
55373;BME280;41249;47.838;16.490;2022-09-09T08:16:52;99066.50;;;18.25;65.73
55373;BME280;41249;47.838;16.490;2022-09-09T08:19:20;99057.56;;;18.90;70.64
55373;BME280;41249;47.838;16.490;2022-09-09T08:21:47;99065.28;;;19.21;73.20
55373;BME280;41249;47.838;16.490;2022-09-09T08:24:15;99074.78;;;18.77;65.23
55373;BME280;41249;47.838;16.490;2022-09-09T08:26:45;99075.47;;;19.08;64.19
55373;BME280;41249;47.838;16.490;2022-09-09T08:29:13;99075.59;;;19.01;72.17
55373;BME280;41249;47.838;16.490;2022-09-09T08:31:45;99073.59;;;19.08;74.67
55373;BME280;41249;47.838;16.490;2022-09-09T08:34:13;99080.06;;;19.07;73.85
55373;BME280;41249;47.838;16.490;2022-09-09T08:36:44;99070.78;;;19.38;66.96
55373;BME280;41249;47.838;16.490;2022-09-09T08:39:13;99067.06;;;19.68;67.63
55373;BME280;41249;47.838;16.490;2022-09-09T08:58:17;99051.53;;;19.46;64.16
55373;BME280;41249;47.838;16.490;2022-09-09T09:09:38;99067.03;;;19.16;63.68
55373;BME280;41249;47.838;16.490;2022-09-09T09:12:23;99060.72;;;19.22;65.35
55373;BME280;41249;47.838;16.490;2022-09-09T09:14:52;99060.34;;;19.30;63.91
55373;BME280;41249;47.838;16.490;2022-09-09T09:17:20;99053.44;;;19.23;63.86
55373;BME280;41249;47.838;16.490;2022-09-09T09:19:48;99045.69;;;19.26;64.46
55373;BME280;41249;47.838;16.490;2022-09-09T09:27:44;99038.09;;;19.23;64.69
55373;BME280;41249;47.838;16.490;2022-09-09T09:30:23;99038.53;;;19.32;63.21
55373;BME280;41249;47.838;16.490;2022-09-09T09:33:11;99039.50;;;19.37;59.37
55373;BME280;41249;47.838;16.490;2022-09-09T09:35:41;99028.38;;;19.91;58.42
55373;BME280;41249;47.838;16.490;2022-09-09T09:41:08;99030.38;;;19.67;54.32
55373;BME280;41249;47.838;16.490;2022-09-09T09:43:36;99022.31;;;20.12;55.91
55373;BME280;41249;47.838;16.490;2022-09-09T09:46:04;99029.59;;;20.62;55.70
55373;BME280;41249;47.838;16.490;2022-09-09T09:48:43;99025.06;;;21.01;53.35
55373;BME280;41249;47.838;16.490;2022-09-09T09:51:13;99022.69;;;21.27;48.24
55373;BME280;41249;47.838;16.490;2022-09-09T09:53:42;99009.75;;;21.51;48.69
55373;BME280;41249;47.838;16.490;2022-09-09T09:56:11;99005.41;;;21.50;46.73
55373;BME280;41249;47.838;16.490;2022-09-09T10:01:38;99008.50;;;20.59;48.36
55373;BME280;41249;47.838;16.490;2022-09-09T10:06:42;98995.72;;;20.71;48.81
55373;BME280;41249;47.838;16.490;2022-09-09T10:09:26;98996.47;;;21.27;48.15
55373;BME280;41249;47.838;16.490;2022-09-09T10:17:27;99018.63;;;21.95;44.77
55373;BME280;41249;47.838;16.490;2022-09-09T10:22:50;99011.63;;;21.06;45.20
55373;BME280;41249;47.838;16.490;2022-09-09T10:34:05;99012.09;;;22.55;49.28
55373;BME280;41249;47.838;16.490;2022-09-09T10:36:44;99003.94;;;22.50;50.27
55373;BME280;41249;47.838;16.490;2022-09-09T10:39:33;99006.47;;;21.98;49.10
55373;BME280;41249;47.838;16.490;2022-09-09T10:42:15;99006.03;;;21.35;50.92
55373;BME280;41249;47.838;16.490;2022-09-09T10:53:37;98988.91;;;21.73;51.61
55373;BME280;41249;47.838;16.490;2022-09-09T10:56:11;98980.63;;;21.85;47.60
55373;BME280;41249;47.838;16.490;2022-09-09T10:58:47;98980.84;;;21.29;49.07
55373;BME280;41249;47.838;16.490;2022-09-09T11:01:22;98979.97;;;20.46;53.41
55373;BME280;41249;47.838;16.490;2022-09-09T11:04:18;98974.06;;;20.66;53.88
55373;BME280;41249;47.838;16.490;2022-09-09T11:06:54;98980.31;;;20.50;53.99
55373;BME280;41249;47.838;16.490;2022-09-09T11:09:24;98980.22;;;21.00;51.81
55373;BME280;41249;47.838;16.490;2022-09-09T11:11:54;98983.31;;;21.36;51.35
55373;BME280;41249;47.838;16.490;2022-09-09T11:17:06;99000.44;;;22.55;48.23
55373;BME280;41249;47.838;16.490;2022-09-09T11:19:41;98990.91;;;22.47;47.69
55373;BME280;41249;47.838;16.490;2022-09-09T11:24:58;98983.03;;;21.32;48.36
55373;BME280;41249;47.838;16.490;2022-09-09T11:36:30;98964.00;;;22.72;46.13
55373;BME280;41249;47.838;16.490;2022-09-09T11:42:17;98973.41;;;22.60;47.11
55373;BME280;41249;47.838;16.490;2022-09-09T11:44:45;98975.38;;;22.69;47.03
55373;BME280;41249;47.838;16.490;2022-09-09T11:47:29;98969.97;;;22.69;46.71
55373;BME280;41249;47.838;16.490;2022-09-09T11:52:43;98964.53;;;22.00;46.01
55373;BME280;41249;47.838;16.490;2022-09-09T11:55:32;98957.03;;;22.07;48.23
55373;BME280;41249;47.838;16.490;2022-09-09T11:58:25;98965.41;;;21.79;47.52
55373;BME280;41249;47.838;16.490;2022-09-09T12:00:52;98959.78;;;21.53;47.36
55373;BME280;41249;47.838;16.490;2022-09-09T12:06:11;98956.28;;;21.85;46.82
55373;BME280;41249;47.838;16.490;2022-09-09T12:08:43;98960.81;;;22.06;49.62
55373;BME280;41249;47.838;16.490;2022-09-09T12:11:11;98956.16;;;22.34;47.24
55373;BME280;41249;47.838;16.490;2022-09-09T12:13:38;98951.22;;;21.93;46.00
55373;BME280;41249;47.838;16.490;2022-09-09T12:16:05;98961.31;;;22.03;47.99
55373;BME280;41249;47.838;16.490;2022-09-09T12:21:08;98957.44;;;21.94;47.76
55373;BME280;41249;47.838;16.490;2022-09-09T12:23:48;98951.34;;;21.77;46.22
55373;BME280;41249;47.838;16.490;2022-09-09T12:26:39;98946.41;;;21.69;48.53
55373;BME280;41249;47.838;16.490;2022-09-09T12:29:28;98926.81;;;21.07;47.87
55373;BME280;41249;47.838;16.490;2022-09-09T12:34:46;98925.38;;;21.27;48.22
55373;BME280;41249;47.838;16.490;2022-09-09T12:37:33;98931.06;;;21.03;47.82
55373;BME280;41249;47.838;16.490;2022-09-09T12:40:15;98924.66;;;21.09;50.12
55373;BME280;41249;47.838;16.490;2022-09-09T12:42:44;98923.16;;;21.19;48.76
55373;BME280;41249;47.838;16.490;2022-09-09T12:47:50;98914.66;;;21.10;49.13
55373;BME280;41249;47.838;16.490;2022-09-09T12:50:22;98908.47;;;21.36;49.10
55373;BME280;41249;47.838;16.490;2022-09-09T12:52:51;98911.56;;;21.45;49.31
55373;BME280;41249;47.838;16.490;2022-09-09T12:55:28;98907.13;;;21.61;48.12
55373;BME280;41249;47.838;16.490;2022-09-09T12:57:57;98897.84;;;21.84;47.46
55373;BME280;41249;47.838;16.490;2022-09-09T13:00:26;98891.06;;;22.13;47.03
55373;BME280;41249;47.838;16.490;2022-09-09T13:02:55;98883.78;;;22.19;46.71
55373;BME280;41249;47.838;16.490;2022-09-09T13:05:25;98882.94;;;21.81;45.10
55373;BME280;41249;47.838;16.490;2022-09-09T13:08:00;98895.47;;;21.92;47.24
55373;BME280;41249;47.838;16.490;2022-09-09T13:10:31;98884.16;;;22.01;45.54
55373;BME280;41249;47.838;16.490;2022-09-09T13:13:15;98877.13;;;22.37;45.52
55373;BME280;41249;47.838;16.490;2022-09-09T13:15:57;98878.25;;;22.04;45.82
55373;BME280;41249;47.838;16.490;2022-09-09T13:18:34;98867.38;;;22.36;46.25
55373;BME280;41249;47.838;16.490;2022-09-09T13:21:02;98867.19;;;22.05;45.81
55373;BME280;41249;47.838;16.490;2022-09-09T13:23:31;98865.22;;;21.63;46.58
55373;BME280;41249;47.838;16.490;2022-09-09T13:26:00;98866.31;;;21.13;47.71
55373;BME280;41249;47.838;16.490;2022-09-09T13:28:29;98857.78;;;20.34;49.31
55373;BME280;41249;47.838;16.490;2022-09-09T13:31:05;98863.63;;;20.87;51.17
55373;BME280;41249;47.838;16.490;2022-09-09T13:33:37;98857.69;;;20.68;50.28
55373;BME280;41249;47.838;16.490;2022-09-09T13:36:06;98862.47;;;20.61;50.83
55373;BME280;41249;47.838;16.490;2022-09-09T13:38:40;98864.88;;;20.79;50.95
55373;BME280;41249;47.838;16.490;2022-09-09T13:41:24;98855.44;;;20.60;49.42
55373;BME280;41249;47.838;16.490;2022-09-09T13:43:51;98854.88;;;20.57;50.57
55373;BME280;41249;47.838;16.490;2022-09-09T13:48:58;98860.53;;;20.78;49.62
55373;BME280;41249;47.838;16.490;2022-09-09T13:54:33;98855.38;;;20.76;50.80
55373;BME280;41249;47.838;16.490;2022-09-09T13:57:00;98859.78;;;20.82;49.83
55373;BME280;41249;47.838;16.490;2022-09-09T13:59:27;98844.19;;;20.90;49.65
55373;BME280;41249;47.838;16.490;2022-09-09T14:02:15;98846.47;;;20.76;49.70
55373;BME280;41249;47.838;16.490;2022-09-09T14:04:43;98849.84;;;20.66;49.99
55373;BME280;41249;47.838;16.490;2022-09-09T14:07:14;98852.81;;;20.65;51.85
55373;BME280;41249;47.838;16.490;2022-09-09T14:09:41;98859.84;;;20.66;51.12
55373;BME280;41249;47.838;16.490;2022-09-09T14:12:11;98857.16;;;20.71;50.91
55373;BME280;41249;47.838;16.490;2022-09-09T14:14:38;98854.69;;;20.64;50.59
55373;BME280;41249;47.838;16.490;2022-09-09T14:17:04;98847.50;;;20.53;50.79
55373;BME280;41249;47.838;16.490;2022-09-09T14:19:33;98850.50;;;20.56;52.54
55373;BME280;41249;47.838;16.490;2022-09-09T14:22:00;98855.00;;;20.68;52.44
55373;BME280;41249;47.838;16.490;2022-09-09T14:24:27;98851.72;;;20.66;51.61
55373;BME280;41249;47.838;16.490;2022-09-09T14:26:54;98854.63;;;20.59;51.94
55373;BME280;41249;47.838;16.490;2022-09-09T14:29:21;98849.78;;;20.61;51.27
55373;BME280;41249;47.838;16.490;2022-09-09T14:31:47;98849.97;;;20.54;51.38
55373;BME280;41249;47.838;16.490;2022-09-09T14:34:14;98857.50;;;20.52;52.64
55373;BME280;41249;47.838;16.490;2022-09-09T14:39:22;98850.72;;;20.50;51.28
55373;BME280;41249;47.838;16.490;2022-09-09T14:41:49;98852.69;;;20.16;53.48
55373;BME280;41249;47.838;16.490;2022-09-09T14:44:15;98855.06;;;19.95;53.95
55373;BME280;41249;47.838;16.490;2022-09-09T14:46:42;98857.34;;;19.87;54.37
55373;BME280;41249;47.838;16.490;2022-09-09T14:57:14;98860.84;;;19.37;64.62
55373;BME280;41249;47.838;16.490;2022-09-09T14:59:41;98849.94;;;19.32;62.94
55373;BME280;41249;47.838;16.490;2022-09-09T15:04:49;98862.31;;;19.16;63.52
55373;BME280;41249;47.838;16.490;2022-09-09T15:19:00;98854.94;;;18.83;65.70
55373;BME280;41249;47.838;16.490;2022-09-09T15:21:33;98852.34;;;18.88;64.32
55373;BME280;41249;47.838;16.490;2022-09-09T15:26:55;98849.75;;;19.21;65.60
55373;BME280;41249;47.838;16.490;2022-09-09T15:29:23;98852.94;;;18.90;66.04
55373;BME280;41249;47.838;16.490;2022-09-09T15:31:49;98857.34;;;18.56;66.49
55373;BME280;41249;47.838;16.490;2022-09-09T15:34:16;98859.47;;;18.42;67.59
55373;BME280;41249;47.838;16.490;2022-09-09T15:36:44;98862.41;;;18.41;67.35
55373;BME280;41249;47.838;16.490;2022-09-09T15:39:16;98860.66;;;18.34;65.97
55373;BME280;41249;47.838;16.490;2022-09-09T15:49:55;98868.25;;;18.02;79.45
55373;BME280;41249;47.838;16.490;2022-09-09T15:55:17;98867.28;;;17.73;96.81
55373;BME280;41249;47.838;16.490;2022-09-09T15:57:44;98859.13;;;17.26;100.00
55373;BME280;41249;47.838;16.490;2022-09-09T16:00:11;98863.66;;;16.96;100.00
55373;BME280;41249;47.838;16.490;2022-09-09T16:02:40;98874.97;;;16.98;100.00
55373;BME280;41249;47.838;16.490;2022-09-09T16:05:07;98862.97;;;17.00;100.00
55373;BME280;41249;47.838;16.490;2022-09-09T16:07:33;98873.19;;;16.92;100.00
55373;BME280;41249;47.838;16.490;2022-09-09T16:12:42;98877.25;;;16.64;100.00
55373;BME280;41249;47.838;16.490;2022-09-09T16:15:09;98876.50;;;16.57;100.00
55373;BME280;41249;47.838;16.490;2022-09-09T16:17:36;98881.34;;;16.48;100.00
55373;BME280;41249;47.838;16.490;2022-09-09T16:20:04;98882.63;;;16.46;100.00
55373;BME280;41249;47.838;16.490;2022-09-09T16:25:15;98878.53;;;16.18;100.00
55373;BME280;41249;47.838;16.490;2022-09-09T16:39:01;98873.97;;;15.76;100.00
55373;BME280;41249;47.838;16.490;2022-09-09T16:41:29;98872.03;;;15.64;100.00
55373;BME280;41249;47.838;16.490;2022-09-09T16:43:57;98878.84;;;15.60;100.00